Lähimpiä lentokenttien sääasemia

 

EFHK - Helsinki/Vantaa, Finland
Ilmasuunta ja etäisyys Sääasema Lakkasuosta: IKO 25km
Päivitetty: 19/08/2018 04:20
Enimmäkseen pilvistä
Enimmäkseen pilvistä
 Tuulen suunta E
Tuuli: E 24 km/h
Lämpötila: 18°C
Kastepiste: 14°C
Kosteus: 78%
Ilmanpaine: 1010 hPa
Pilvet: Enimmäkseen pilvistä
Näkyvyys: 10 km
Pilvitiedot: Osittain pilvistä 549 m
Puolipilvistä 1219 m
Enimmäkseen pilvistä 3962 m
2018/08/19 01:20 EFHK 190120Z 19013KT 9999 FEW018 SCT040 BKN130 18/14 Q1010 NOSIG
EFHF - Helsinki/Malmi, Finland
Ilmasuunta ja etäisyys Sääasema Lakkasuosta: I 29km
Päivitetty: 06/03/2017 17:50
NOT Current
Selkeätä
Selkeätä
 Tuulen suunta KO
Tuuli: KO 11 km/h
Lämpötila: -2°C
Hyytävyys: -6°C
Kastepiste: -11°C
Kosteus: 51%
Ilmanpaine: 1021 hPa
Yhteenveto: Selkeätä
Näkyvyys: enemmän kuin 10 km
2017/03/06 15:50 EFHF 061550Z 04006KT 330V100 CAVOK M02/M11 Q1021
 
EETN - Tallinn, Estonia
Ilmasuunta ja etäisyys Sääasema Lakkasuosta: E 97km
Päivitetty: 19/08/2018 04:20
Osittain pilvistä
Osittain pilvistä
 Tuulen suunta E
Tuuli: E 13 km/h
Lämpötila: 15°C
Kastepiste: 14°C
Kosteus: 94%
Ilmanpaine: 1012 hPa
Pilvet: Osittain pilvistä
Näkyvyys: 10 km
Pilvitiedot: Osittain pilvistä 1372 m
2018/08/19 01:20 EETN 190120Z 19007KT 9999 FEW045 15/14 Q1012
EFTU - Turku/Abo, Finland
Ilmasuunta ja etäisyys Sääasema Lakkasuosta: LLU 127km
Päivitetty: 19/08/2018 04:20
Heikkoa sadetta, Vaihtelevaa
Heikkoa sadetta, Vaihtelevaa
 Tuulen suunta LO
Tuuli: LO 17 km/h
Lämpötila: 16°C
Kastepiste: 15°C
Kosteus: 94%
Ilmanpaine: 1009 hPa
Yhteenveto: Heikkoa sadetta
Pilvet: Vaihtelevaa
Näkyvyys: 10 km
Pilvitiedot: Osittain pilvistä 396 m
Enimmäkseen pilvistä 457 m
Vaihtelevaa 1006 m
2018/08/19 01:20 EFTU 190120Z AUTO 22009KT 9999 -RA FEW013/// BKN015/// OVC033/// 16/15 Q1009
 
EFTP - Tampere/Pirkkala, Finland
Ilmasuunta ja etäisyys Sääasema Lakkasuosta: PLU 138km
Päivitetty: 19/08/2018 04:20
Heikkoa sadetta, Enimmäkseen pilvistä
Heikkoa sadetta, Enimmäkseen pilvistä
 Tuulen suunta ELO
Tuuli: ELO 17 km/h
Lämpötila: 15°C
Kastepiste: 15°C
Kosteus: 100%
Ilmanpaine: 1007 hPa
Yhteenveto: Heikkoa sadetta
Pilvet: Enimmäkseen pilvistä
Näkyvyys: 10 km
Pilvitiedot: Osittain pilvistä 274 m
Puolipilvistä 427 m
Enimmäkseen pilvistä 549 m
Enimmäkseen pilvistä 884 m
2018/08/19 01:20 EFTP 190120Z AUTO 20009KT 9999 -RA FEW009 SCT014 BKN018 BKN029 15/15 Q1007
EFPO - Pori (mil/Civ), Finland
Ilmasuunta ja etäisyys Sääasema Lakkasuosta: LU 199km
Päivitetty: 19/08/2018 04:20
Vaihtelevaa
Vaihtelevaa
 Tuulen suunta ELO
Tuuli: ELO 20 km/h
Lämpötila: 17°C
Kastepiste: 15°C
Kosteus: 88%
Ilmanpaine: 1006 hPa
Pilvet: Vaihtelevaa
Näkyvyys: 10 km
Pilvitiedot: Osittain pilvistä 305 m
Vaihtelevaa 549 m
2018/08/19 01:20 EFPO 190120Z AUTO 21011KT 180V240 9999 FEW010/// OVC018/// 17/15 Q1006
 
EFLP - Lappeenranta, Finland
Ilmasuunta ja etäisyys Sääasema Lakkasuosta: IKO 216km
Päivitetty: 19/08/2018 04:20
Selkeätä
Selkeätä
 Tuulen suunta ELO
Tuuli: ELO 11 km/h
Lämpötila: 15°C
Kastepiste: 12°C
Kosteus: 82%
Ilmanpaine: 1011 hPa
Yhteenveto: Selkeätä
Näkyvyys: enemmän kuin 10 km
2018/08/19 01:20 EFLP 190120Z AUTO 21006KT CAVOK 15/12 Q1011
EFMI - Mikkeli, Finland
Ilmasuunta ja etäisyys Sääasema Lakkasuosta: KO 220km
Päivitetty: 19/08/2018 04:20
Selkeätä
Selkeätä
 Tuulen suunta E
Tuuli: E 7 km/h
Lämpötila: 15°C
Kastepiste: 13°C
Kosteus: 88%
Ilmanpaine: 1009 hPa
Yhteenveto: Selkeätä
Näkyvyys: enemmän kuin 10 km
2018/08/19 01:20 EFMI 190120Z AUTO 19004KT 140V240 CAVOK 15/13 Q1009
 
EFJY - Jyvaskyla (mil/C, Finland
Ilmasuunta ja etäisyys Sääasema Lakkasuosta: PKO 245km
Päivitetty: 19/08/2018 04:20
Heikkoa sadetta, Showers, Vaihtelevaa
Heikkoa sadetta, Showers, Vaihtelevaa
 Tuulen suunta E
Tuuli: E 11 km/h
Lämpötila: 14°C
Kastepiste: 12°C
Kosteus: 88%
Ilmanpaine: 1006 hPa
Yhteenveto: Heikkoa sadetta, Showers
Pilvet: Vaihtelevaa
Näkyvyys: 10 km
Pilvitiedot: Enimmäkseen pilvistä 701 m
Vaihtelevaa 2042 m
2018/08/19 01:20 EFJY 190120Z AUTO 17006KT 130V320 9999 -SHRA BKN023 OVC067 14/12 Q1006
EFMA - Mariehamn/Aland, Finland
Ilmasuunta ja etäisyys Sääasema Lakkasuosta: L 257km
Päivitetty: 19/08/2018 04:20
Enimmäkseen pilvistä
Enimmäkseen pilvistä
 Tuulen suunta ELO
Tuuli: ELO 22 km/h
Lämpötila: 18°C
Kastepiste: 15°C
Kosteus: 83%
Ilmanpaine: 1008 hPa
Pilvet: Enimmäkseen pilvistä
Näkyvyys: 10 km
Pilvitiedot: Enimmäkseen pilvistä 732 m
2018/08/19 01:20 EFMA 190120Z AUTO 21012KT 9999 BKN024 18/15 Q1008
 
EFVR - Varkaus, Finland
Ilmasuunta ja etäisyys Sääasema Lakkasuosta: KO 277km
Päivitetty: 15/04/2016 08:50
NOT Current
Selkeätä
Selkeätä
 Tuulen suunta PLU
Tuuli: PLU 15 km/h
Lämpötila: -1°C
Hyytävyys: -6°C
Kastepiste: -8°C
Kosteus: 59%
Ilmanpaine: 1005 hPa
Yhteenveto: Selkeätä
Näkyvyys: enemmän kuin 10 km
2016/04/15 05:50 EFVR 150550Z AUTO 33008KT CAVOK M01/M08 Q1005
EFSI - Seinajoki-Ilmajo, Finland
Ilmasuunta ja etäisyys Sääasema Lakkasuosta: PLU 285km
Päivitetty: 19/08/2018 04:20
Enimmäkseen pilvistä
Enimmäkseen pilvistä
 Tuulen suunta ELO
Tuuli: ELO 9 km/h
Lämpötila: 15°C
Kastepiste: 14°C
Kosteus: 94%
Ilmanpaine: 1003 hPa
Pilvet: Enimmäkseen pilvistä
Näkyvyys: 10 km
Pilvitiedot: Osittain pilvistä 427 m
Puolipilvistä 518 m
Enimmäkseen pilvistä 853 m
Enimmäkseen pilvistä 975 m
2018/08/19 01:20 EFSI 190120Z AUTO 21005KT 150V280 9999 FEW014 SCT017 BKN028 BKN032 15/14 Q1003
 
KSJC - San Jose, California, USA
Ilmasuunta ja etäisyys Sääasema Lakkasuosta: PLU 8758km
Päivitetty: 19/08/2018 03:53
Enimmäkseen pilvistä
Enimmäkseen pilvistä
 Tuulen suunta LLU
Tuuli: LLU 17 km/h
Lämpötila: 27°C
Kastepiste: 11°C
Kosteus: 37%
Ilmanpaine: 1014.6 hPa
Pilvet: Enimmäkseen pilvistä
Näkyvyys: 16 km
Pilvitiedot: Osittain pilvistä 305 m
Puolipilvistä 732 m
Enimmäkseen pilvistä 945 m
2018/08/19 00:53 KSJC 190053Z 30009KT 10SM FEW010 SCT024 BKN031 27/11 A2996 RMK AO2 SLP145 FU FEW010 FU SCT024 FU BKN031 T02720111